Time;durP1;ratioP1;P1;durP2;ratioP2;P2;SDS_P1;SDS_P2;PMS_P1;PMS_P2;Temp;Humidity;BMP_temperature;BMP_pressure;BME280_temperature;BME280_humidity;BME280_pressure;Samples;Min_cycle;Max_cycle;Signal;HPM_P1;HPM_P2
2021/10/20 00:01:57;;;;;;;16.30;11.80;;;;;;;10.20;79.89;100601.98;88814;1272;87128;-67
2021/10/20 00:04:05;;;;;;;16.60;12.20;;;;;;;10.21;79.80;100597.94;88815;1275;93845;-65
2021/10/20 00:06:12;;;;;;;16.00;11.10;;;;;;;10.22;79.73;100596.29;88845;1275;80295;-63
2021/10/20 00:08:20;;;;;;;18.60;11.70;;;;;;;10.23;79.78;100589.98;88871;1275;81780;-63
2021/10/20 00:10:30;;;;;;;15.70;11.70;;;;;;;10.24;79.77;100585.79;88848;1274;97941;-64
2021/10/20 00:12:41;;;;;;;15.70;11.10;;;;;;;10.25;79.74;100587.89;88817;1275;87457;-67
2021/10/20 00:14:49;;;;;;;15.30;11.30;;;;;;;10.23;79.71;100583.60;88804;1275;93457;-67
2021/10/20 00:16:58;;;;;;;14.80;10.80;;;;;;;10.24;79.70;100580.96;88866;1274;81352;-66
2021/10/20 00:19:05;;;;;;;15.40;11.20;;;;;;;10.25;79.70;100577.77;88886;1274;81524;-67
2021/10/20 00:21:13;;;;;;;13.80;10.50;;;;;;;10.28;79.70;100573.46;88862;1275;97669;-64
2021/10/20 00:23:20;;;;;;;15.90;11.20;;;;;;;10.30;79.64;100567.27;88848;1275;88570;-64
2021/10/20 00:25:28;;;;;;;14.90;11.50;;;;;;;10.29;79.70;100566.86;88831;1275;93443;-64
2021/10/20 00:27:36;;;;;;;16.00;11.00;;;;;;;10.28;79.61;100565.70;88804;1275;78840;-67
2021/10/20 00:29:43;;;;;;;16.10;10.30;;;;;;;10.31;79.57;100562.16;88856;1275;81312;-67
2021/10/20 00:31:51;;;;;;;13.10;10.60;;;;;;;10.31;79.59;100559.84;88782;1274;99524;-65
2021/10/20 00:33:58;;;;;;;14.40;11.10;;;;;;;10.32;79.56;100551.96;88839;1274;87374;-66
2021/10/20 00:36:09;;;;;;;15.60;10.60;;;;;;;10.35;79.45;100546.48;88878;1275;93572;-63
2021/10/20 00:38:19;;;;;;;14.60;11.10;;;;;;;10.38;79.55;100540.54;88844;1275;78745;-63
2021/10/20 00:40:29;;;;;;;15.30;11.40;;;;;;;10.39;79.53;100536.45;88715;1276;81842;-63
2021/10/20 00:42:38;;;;;;;15.10;11.30;;;;;;;10.40;79.51;100531.16;88785;1275;99124;-63
2021/10/20 00:44:51;;;;;;;16.30;10.20;;;;;;;10.40;79.47;100526.87;88806;1275;87199;-64
2021/10/20 00:47:02;;;;;;;15.70;11.60;;;;;;;10.41;79.43;100524.73;88823;1275;93205;-66
2021/10/20 00:49:09;;;;;;;17.30;11.70;;;;;;;10.43;79.44;100518.31;88752;1275;79973;-66
2021/10/20 00:51:19;;;;;;;17.50;12.00;;;;;;;10.45;79.36;100515.26;88824;1275;82245;-67
2021/10/20 00:53:27;;;;;;;14.60;10.70;;;;;;;10.44;79.38;100510.77;88854;1275;98734;-70
2021/10/20 00:55:35;;;;;;;16.60;11.30;;;;;;;10.43;79.36;100503.73;88826;1275;88421;-64
2021/10/20 00:57:45;;;;;;;14.30;10.90;;;;;;;10.44;79.28;100499.67;88850;1275;93033;-67
2021/10/20 00:59:54;;;;;;;16.50;11.20;;;;;;;10.46;79.35;100500.28;88836;1274;78601;-69
2021/10/20 01:02:01;;;;;;;16.50;11.00;;;;;;;10.49;79.21;100500.63;88908;1275;81725;-63
2021/10/20 01:04:09;;;;;;;13.80;11.00;;;;;;;10.51;79.27;100500.08;88829;1275;99457;-67
2021/10/20 01:06:17;;;;;;;16.90;11.90;;;;;;;10.51;79.34;100497.75;88866;1275;88686;-66
2021/10/20 01:08:25;;;;;;;15.80;10.70;;;;;;;10.52;79.25;100497.30;88832;1275;94731;-66
2021/10/20 01:10:36;;;;;;;15.10;11.10;;;;;;;10.53;79.30;100500.55;88846;1275;78192;-65
2021/10/20 01:12:45;;;;;;;15.40;10.40;;;;;;;10.54;79.25;100499.45;88812;1274;82910;-63
2021/10/20 01:14:56;;;;;;;16.20;11.80;;;;;;;10.54;79.19;100492.63;88810;1274;97851;-64
2021/10/20 01:17:06;;;;;;;15.30;10.90;;;;;;;10.56;79.19;100491.73;88860;1275;88445;-66
2021/10/20 01:19:16;;;;;;;16.10;11.00;;;;;;;10.58;79.08;100486.91;88837;1275;95109;-65
2021/10/20 01:21:24;;;;;;;13.00;10.20;;;;;;;10.60;79.18;100485.19;88807;1275;80057;-64
2021/10/20 01:23:32;;;;;;;15.20;10.90;;;;;;;10.59;79.15;100479.98;88856;1275;82761;-67
2021/10/20 01:25:39;;;;;;;15.50;10.30;;;;;;;10.61;79.12;100474.45;88669;1275;97634;-64
2021/10/20 01:27:47;;;;;;;15.40;11.20;;;;;;;10.61;79.13;100473.27;88793;1276;89187;-67
2021/10/20 01:29:57;;;;;;;13.50;10.80;;;;;;;10.62;79.14;100471.46;88816;1275;92873;-67
2021/10/20 01:32:07;;;;;;;14.30;10.20;;;;;;;10.66;79.07;100467.06;88792;1275;80029;-66
2021/10/20 01:34:14;;;;;;;12.70;10.10;;;;;;;10.69;79.08;100462.04;88887;1275;80775;-64
2021/10/20 01:36:22;;;;;;;13.40;10.40;;;;;;;10.74;79.02;100463.72;88874;1274;97761;-67
2021/10/20 01:38:30;;;;;;;14.00;10.70;;;;;;;10.74;79.14;100466.21;88848;1276;87088;-68
2021/10/20 01:40:40;;;;;;;15.00;10.20;;;;;;;10.74;79.14;100463.75;88849;1275;93871;-67
2021/10/20 01:42:47;;;;;;;16.30;10.60;;;;;;;10.76;79.09;100464.91;88844;1275;81892;-65
2021/10/20 01:44:55;;;;;;;13.40;9.90;;;;;;;10.77;79.01;100464.05;88852;1275;83417;-71
2021/10/20 01:47:03;;;;;;;12.40;10.00;;;;;;;10.78;79.04;100457.61;88908;1274;98512;-66
2021/10/20 01:49:11;;;;;;;14.10;10.20;;;;;;;10.77;79.10;100459.06;88841;1275;88085;-66
2021/10/20 01:51:21;;;;;;;13.50;10.30;;;;;;;10.78;79.11;100455.00;88851;1275;93705;-64
2021/10/20 01:53:29;;;;;;;14.40;9.70;;;;;;;10.78;79.13;100460.90;88872;1275;81557;-63
2021/10/20 01:55:36;;;;;;;13.90;10.20;;;;;;;10.80;78.99;100457.39;88873;1275;81335;-62
2021/10/20 01:57:44;;;;;;;11.50;9.90;;;;;;;10.82;79.07;100456.34;88872;1275;97850;-65
2021/10/20 01:59:51;;;;;;;14.40;10.30;;;;;;;10.83;79.01;100453.40;88799;1275;88226;-65
2021/10/20 02:01:59;;;;;;;14.40;9.70;;;;;;;10.87;79.12;100454.36;88776;1276;93277;-62
2021/10/20 02:04:12;;;;;;;13.40;10.60;;;;;;;10.89;79.08;100448.92;88844;1275;78413;-64
2021/10/20 02:06:21;;;;;;;12.80;10.60;;;;;;;10.89;79.10;100442.41;88848;1275;81738;-65
2021/10/20 02:08:29;;;;;;;14.60;10.60;;;;;;;10.89;79.21;100437.58;88848;1275;98611;-65
2021/10/20 02:10:36;;;;;;;12.10;10.30;;;;;;;10.89;79.31;100433.92;88840;1275;87994;-66
2021/10/20 02:12:44;;;;;;;15.00;10.80;;;;;;;10.91;79.45;100431.91;88805;1275;93464;-62
2021/10/20 02:14:52;;;;;;;12.60;10.40;;;;;;;10.92;79.43;100431.41;88781;1275;79979;-63
2021/10/20 02:16:59;;;;;;;13.40;10.30;;;;;;;10.94;79.59;100430.77;88887;1274;82472;-68
2021/10/20 02:19:07;;;;;;;16.20;10.00;;;;;;;10.90;79.77;100429.09;88804;1274;99064;-66
2021/10/20 02:21:16;;;;;;;16.60;10.30;;;;;;;10.90;79.66;100422.30;88793;1275;87683;-64
2021/10/20 02:23:24;;;;;;;12.10;9.40;;;;;;;10.89;79.73;100421.86;88860;1275;94449;-64
2021/10/20 02:25:32;;;;;;;13.00;9.90;;;;;;;10.87;79.93;100417.90;88800;1274;78872;-63
2021/10/20 02:27:42;;;;;;;16.40;10.50;;;;;;;10.86;80.02;100419.54;88784;1275;82752;-62
2021/10/20 02:29:50;;;;;;;14.30;10.70;;;;;;;10.85;80.10;100421.65;88919;1275;97695;-63
2021/10/20 02:31:57;;;;;;;12.70;10.10;;;;;;;10.85;80.13;100423.32;88873;1275;87140;-63
2021/10/20 02:34:05;;;;;;;14.60;10.30;;;;;;;10.80;80.29;100431.11;88835;1275;95493;-63
2021/10/20 02:36:12;;;;;;;11.70;9.90;;;;;;;10.79;80.34;100428.56;88822;1275;79986;-62
2021/10/20 02:38:20;;;;;;;14.00;11.10;;;;;;;10.78;80.43;100424.36;88900;1275;82033;-62
2021/10/20 02:40:27;;;;;;;13.40;10.50;;;;;;;10.79;80.45;100419.18;88879;1274;99419;-63
2021/10/20 02:42:35;;;;;;;13.40;10.30;;;;;;;10.78;80.65;100405.94;88890;1275;88279;-69
2021/10/20 02:44:42;;;;;;;13.10;10.50;;;;;;;10.75;80.77;100396.73;88806;1275;94051;-69
2021/10/20 02:46:50;;;;;;;13.90;10.50;;;;;;;10.71;80.97;100398.97;88885;1275;79600;-70
2021/10/20 02:48:57;;;;;;;13.20;10.40;;;;;;;10.73;80.96;100394.87;88841;1274;80716;-69
2021/10/20 02:51:05;;;;;;;12.60;9.90;;;;;;;10.75;81.15;100400.08;88855;1275;97592;-66
2021/10/20 02:53:12;;;;;;;14.30;10.60;;;;;;;10.73;81.18;100394.83;88863;1275;87841;-67
2021/10/20 02:55:20;;;;;;;13.00;10.10;;;;;;;10.76;81.27;100387.63;88821;1275;94956;-64
2021/10/20 02:57:27;;;;;;;14.80;10.70;;;;;;;10.77;81.31;100385.51;88848;1275;80073;-68
2021/10/20 02:59:34;;;;;;;14.90;10.70;;;;;;;10.74;81.35;100385.04;88814;1275;80655;-69
2021/10/20 03:01:42;;;;;;;12.60;10.10;;;;;;;10.69;81.53;100378.98;88808;1274;97586;-62
2021/10/20 03:03:50;;;;;;;14.60;11.50;;;;;;;10.70;81.65;100377.08;88820;1275;88557;-64
2021/10/20 03:06:03;;;;;;;14.20;11.20;;;;;;;10.72;81.71;100380.60;88814;1275;94383;-64
2021/10/20 03:08:12;;;;;;;16.40;11.60;;;;;;;10.73;81.67;100379.70;88876;1275;80244;-62
2021/10/20 03:10:21;;;;;;;16.40;11.20;;;;;;;10.73;81.73;100376.08;88810;1275;81648;-63
2021/10/20 03:12:28;;;;;;;15.50;11.40;;;;;;;10.74;81.64;100365.27;88815;1275;98338;-62
2021/10/20 03:14:36;;;;;;;13.90;11.10;;;;;;;10.75;81.77;100360.05;88814;1275;87042;-63
2021/10/20 03:16:43;;;;;;;15.00;11.30;;;;;;;10.74;81.96;100358.79;88806;1275;93455;-70
2021/10/20 03:18:50;;;;;;;14.20;11.30;;;;;;;10.77;81.91;100356.92;88875;1275;79037;-66
2021/10/20 03:20:59;;;;;;;15.20;11.80;;;;;;;10.78;82.00;100349.20;88857;1274;81508;-65
2021/10/20 03:23:06;;;;;;;15.20;11.40;;;;;;;10.76;81.92;100344.58;88925;1275;99267;-69
2021/10/20 03:25:15;;;;;;;12.80;10.90;;;;;;;10.74;81.93;100348.86;88871;1275;87051;-68
2021/10/20 03:27:23;;;;;;;14.70;10.80;;;;;;;10.72;82.05;100348.85;88934;1274;93375;-64
2021/10/20 03:29:30;;;;;;;14.70;11.30;;;;;;;10.73;82.04;100347.48;88826;1275;79819;-64
2021/10/20 03:31:38;;;;;;;15.80;11.80;;;;;;;10.74;82.04;100343.04;88878;1275;82129;-63
2021/10/20 03:33:48;;;;;;;15.30;10.90;;;;;;;10.75;82.07;100339.48;88868;1275;98569;-63
2021/10/20 03:36:07;;;;;;;12.60;11.00;;;;;;;10.74;82.17;100338.89;88819;1275;87839;-64
2021/10/20 03:38:15;;;;;;;15.10;11.20;;;;;;;10.74;82.21;100334.39;88829;1275;93651;-68
2021/10/20 03:40:22;;;;;;;14.30;10.60;;;;;;;10.73;82.26;100334.89;88802;1275;80497;-68
2021/10/20 03:42:30;;;;;;;13.10;10.30;;;;;;;10.73;82.28;100334.14;88808;1275;82415;-63
2021/10/20 03:44:40;;;;;;;14.10;10.70;;;;;;;10.75;82.36;100337.31;88828;1275;98021;-64
2021/10/20 03:46:48;;;;;;;13.30;10.90;;;;;;;10.76;82.33;100335.80;88878;1275;88551;-64
2021/10/20 03:48:55;;;;;;;13.20;10.80;;;;;;;10.79;82.36;100333.25;88799;1275;94559;-63
2021/10/20 03:51:04;;;;;;;13.90;10.90;;;;;;;10.80;82.37;100332.96;88809;1275;81705;-63
2021/10/20 03:53:14;;;;;;;15.70;10.80;;;;;;;10.84;82.36;100332.23;88880;1275;81134;-63
2021/10/20 03:55:23;;;;;;;12.70;10.60;;;;;;;10.87;82.44;100330.66;88827;1275;98319;-64
2021/10/20 03:57:35;;;;;;;11.80;10.60;;;;;;;10.88;82.41;100332.39;88899;1275;88741;-64
2021/10/20 03:59:44;;;;;;;14.70;10.90;;;;;;;10.91;82.45;100332.48;88802;1275;93815;-63
2021/10/20 04:01:51;;;;;;;13.40;10.40;;;;;;;10.92;82.35;100333.70;88799;1275;81550;-63
2021/10/20 04:03:59;;;;;;;12.50;10.50;;;;;;;10.92;82.63;100329.75;88783;1275;82337;-62
2021/10/20 04:06:06;;;;;;;13.50;9.80;;;;;;;10.95;82.44;100320.05;88807;1275;99118;-66
2021/10/20 04:08:14;;;;;;;13.80;11.00;;;;;;;10.98;82.42;100313.18;88918;1275;88497;-68
2021/10/20 04:10:23;;;;;;;12.50;10.40;;;;;;;10.99;82.55;100310.48;88809;1275;95649;-70
2021/10/20 04:12:31;;;;;;;14.20;10.40;;;;;;;10.97;82.70;100306.36;88794;1275;79839;-65
2021/10/20 04:14:38;;;;;;;13.50;10.30;;;;;;;10.97;82.61;100301.66;88819;1274;81085;-65
2021/10/20 04:16:45;;;;;;;10.60;9.50;;;;;;;10.97;82.88;100299.51;88854;1275;96393;-69
2021/10/20 04:18:53;;;;;;;13.50;10.60;;;;;;;10.96;83.04;100288.67;88875;1274;87740;-68
2021/10/20 04:21:03;;;;;;;12.70;10.50;;;;;;;10.97;83.06;100289.77;88834;1274;96277;-65
2021/10/20 04:23:10;;;;;;;13.30;11.00;;;;;;;10.97;83.00;100286.10;88848;1274;80422;-64
2021/10/20 04:25:20;;;;;;;12.00;9.80;;;;;;;10.95;82.98;100280.93;88840;1274;82230;-64
2021/10/20 04:27:27;;;;;;;11.10;9.40;;;;;;;10.98;83.17;100278.48;88896;1275;98406;-67
2021/10/20 04:29:35;;;;;;;11.10;9.20;;;;;;;10.99;83.11;100278.55;88842;1275;87969;-71
2021/10/20 04:31:45;;;;;;;14.10;10.10;;;;;;;11.03;83.13;100278.63;88853;1275;93526;-64
2021/10/20 04:33:52;;;;;;;12.90;9.50;;;;;;;11.06;83.07;100273.55;88835;1274;82065;-64
2021/10/20 04:36:00;;;;;;;11.50;9.60;;;;;;;11.06;83.20;100270.88;88824;1274;80826;-68
2021/10/20 04:38:10;;;;;;;10.70;8.90;;;;;;;11.07;83.17;100268.14;88866;1275;97924;-67
2021/10/20 04:40:18;;;;;;;11.30;9.90;;;;;;;11.09;83.11;100268.23;88840;1273;86975;-67
2021/10/20 04:42:26;;;;;;;12.30;9.90;;;;;;;11.11;83.23;100270.74;88889;1275;93038;-68
2021/10/20 04:44:34;;;;;;;11.50;10.00;;;;;;;11.11;83.23;100271.00;88836;1275;80876;-67
2021/10/20 04:46:41;;;;;;;12.20;10.10;;;;;;;11.11;83.06;100265.44;88829;1275;81463;-62
2021/10/20 04:48:48;;;;;;;11.50;8.40;;;;;;;11.15;82.95;100262.63;88819;1273;99544;-63
2021/10/20 04:50:59;;;;;;;11.20;9.50;;;;;;;11.18;82.94;100260.83;88829;1275;87707;-63
2021/10/20 04:53:07;;;;;;;11.20;9.70;;;;;;;11.19;82.93;100261.23;88773;1274;95454;-67
2021/10/20 04:55:17;;;;;;;12.60;8.80;;;;;;;11.21;82.92;100259.27;88785;1274;78732;-67
2021/10/20 04:57:25;;;;;;;13.70;9.10;;;;;;;11.20;83.00;100254.65;88864;1275;80280;-69
2021/10/20 04:59:33;;;;;;;11.00;8.30;;;;;;;11.17;82.84;100249.17;88770;1275;99568;-71
2021/10/20 05:01:41;;;;;;;10.50;7.90;;;;;;;11.21;82.77;100249.45;88856;1275;87859;-64
2021/10/20 05:03:48;;;;;;;13.50;8.00;;;;;;;11.21;82.92;100246.45;88832;1275;95558;-64
2021/10/20 05:06:05;;;;;;;10.60;8.30;;;;;;;11.24;82.96;100246.98;88890;1274;79900;-63
2021/10/20 05:08:13;;;;;;;11.50;8.40;;;;;;;11.25;82.94;100241.84;88857;1275;81335;-68
2021/10/20 05:10:21;;;;;;;10.30;8.20;;;;;;;11.27;82.83;100238.52;88868;1276;98528;-71
2021/10/20 05:12:29;;;;;;;12.30;8.20;;;;;;;11.29;82.79;100232.95;88887;1274;88276;-64
2021/10/20 05:14:39;;;;;;;11.20;7.70;;;;;;;11.28;82.79;100234.48;88801;1275;93689;-64
2021/10/20 05:16:47;;;;;;;11.60;8.10;;;;;;;11.31;82.78;100226.01;88796;1275;79667;-64
2021/10/20 05:18:58;;;;;;;9.10;7.60;;;;;;;11.33;82.80;100219.79;88852;1275;83081;-64
2021/10/20 05:21:05;;;;;;;10.80;8.20;;;;;;;11.37;82.77;100223.01;88876;1275;96569;-64
2021/10/20 05:23:12;;;;;;;12.10;8.40;;;;;;;11.38;82.71;100225.20;88937;1273;87941;-64
2021/10/20 05:25:20;;;;;;;11.50;8.30;;;;;;;11.40;82.68;100219.09;88829;1275;94689;-62
2021/10/20 05:27:31;;;;;;;11.60;7.40;;;;;;;11.42;82.68;100219.67;88883;1273;79255;-67
2021/10/20 05:29:38;;;;;;;10.30;8.00;;;;;;;11.47;82.75;100221.87;88817;1275;82345;-65
2021/10/20 05:31:46;;;;;;;8.60;7.30;;;;;;;11.50;82.71;100224.85;88849;1275;98411;-67
2021/10/20 05:33:53;;;;;;;11.70;7.70;;;;;;;11.53;82.64;100226.67;88838;1275;88328;-68
2021/10/20 05:36:00;;;;;;;11.20;8.10;;;;;;;11.57;82.56;100227.39;88833;1275;93113;-66
2021/10/20 05:38:08;;;;;;;9.40;7.60;;;;;;;11.58;82.52;100223.10;88900;1273;80677;-65
2021/10/20 05:40:16;;;;;;;7.90;7.00;;;;;;;11.64;82.55;100228.33;88878;1275;82570;-64
2021/10/20 05:42:23;;;;;;;12.30;7.90;;;;;;;11.67;82.53;100229.71;88852;1275;98944;-67
2021/10/20 05:44:31;;;;;;;10.10;8.10;;;;;;;11.69;82.58;100227.05;88818;1274;88488;-65
2021/10/20 05:46:38;;;;;;;10.20;6.70;;;;;;;11.72;82.46;100226.48;88872;1275;93180;-63
2021/10/20 05:48:45;;;;;;;10.30;7.80;;;;;;;11.74;82.49;100226.83;88922;1275;82430;-62
2021/10/20 05:50:55;;;;;;;9.20;7.40;;;;;;;11.75;82.57;100225.39;88883;1274;81263;-64
2021/10/20 05:53:02;;;;;;;9.30;7.30;;;;;;;11.77;82.48;100224.27;88838;1275;99702;-67
2021/10/20 05:55:14;;;;;;;9.80;6.80;;;;;;;11.76;82.52;100222.89;88872;1274;88573;-65
2021/10/20 05:57:22;;;;;;;10.40;7.60;;;;;;;11.80;82.48;100216.54;88877;1275;95310;-67
2021/10/20 05:59:34;;;;;;;12.50;8.10;;;;;;;11.83;82.49;100218.38;88843;1274;81780;-67
2021/10/20 06:01:41;;;;;;;11.80;7.80;;;;;;;11.84;82.52;100218.77;88861;1273;81638;-67
2021/10/20 06:03:52;;;;;;;8.00;7.00;;;;;;;11.89;82.54;100214.70;88870;1275;98686;-66
2021/10/20 06:06:00;;;;;;;9.80;7.20;;;;;;;11.91;82.64;100213.41;88831;1273;87628;-66
2021/10/20 06:08:08;;;;;;;8.80;7.10;;;;;;;11.93;82.61;100214.66;88908;1275;94540;-66
2021/10/20 06:10:16;;;;;;;11.60;7.50;;;;;;;11.94;82.76;100218.59;88822;1274;80298;-67
2021/10/20 06:12:24;;;;;;;8.90;7.10;;;;;;;11.97;82.67;100219.02;88881;1275;82506;-65
2021/10/20 06:14:32;;;;;;;10.00;7.60;;;;;;;12.00;82.60;100212.16;88832;1275;97266;-65
2021/10/20 06:16:41;;;;;;;12.90;7.90;;;;;;;12.01;82.72;100216.29;88882;1275;86996;-64
2021/10/20 06:18:49;;;;;;;10.20;7.60;;;;;;;12.07;82.57;100215.52;88839;1274;94808;-64
2021/10/20 06:21:00;;;;;;;9.40;7.10;;;;;;;12.09;82.78;100214.64;88864;1275;79851;-64
2021/10/20 06:23:07;;;;;;;25.80;17.80;;;;;;;12.08;82.82;100212.11;88880;1274;81844;-66
2021/10/20 06:25:15;;;;;;;39.50;27.70;;;;;;;12.11;82.73;100210.48;88937;1274;99563;-66
2021/10/20 06:27:28;;;;;;;14.80;10.80;;;;;;;12.14;82.78;100212.83;88884;1275;88120;-66
2021/10/20 06:29:35;;;;;;;12.50;8.30;;;;;;;12.14;82.80;100213.27;88866;1275;94113;-67
2021/10/20 06:31:43;;;;;;;12.30;7.60;;;;;;;12.15;82.88;100213.91;88855;1275;79844;-64
2021/10/20 06:33:53;;;;;;;10.50;7.80;;;;;;;12.17;82.92;100209.54;88699;1275;260825;-65
2021/10/20 06:36:02;;;;;;;10.40;7.50;;;;;;;12.19;82.80;100211.09;88903;1274;100162;-64
2021/10/20 06:38:13;;;;;;;9.70;7.40;;;;;;;12.21;82.80;100209.64;88858;1275;89091;-66
2021/10/20 06:40:26;;;;;;;9.40;7.80;;;;;;;12.23;82.93;100208.47;88827;1275;94798;-67
2021/10/20 06:42:37;;;;;;;12.60;8.20;;;;;;;12.26;82.92;100209.48;88818;1273;79929;-64
2021/10/20 06:44:44;;;;;;;8.90;7.70;;;;;;;12.26;82.99;100209.95;88891;1274;81423;-66
2021/10/20 06:46:52;;;;;;;10.10;7.80;;;;;;;12.29;83.07;100206.28;88795;1275;100353;-66
2021/10/20 06:49:00;;;;;;;11.10;8.00;;;;;;;12.31;83.15;100204.70;88830;1274;88252;-69
2021/10/20 06:51:09;;;;;;;11.80;7.50;;;;;;;12.36;83.23;100201.84;88877;1274;95079;-65
2021/10/20 06:53:20;;;;;;;12.00;7.60;;;;;;;12.42;83.27;100207.39;88869;1275;78197;-64
2021/10/20 06:55:28;;;;;;;15.50;9.30;;;;;;;12.49;83.24;100210.61;88834;1273;82747;-67
2021/10/20 06:57:36;;;;;;;9.80;7.50;;;;;;;12.53;83.14;100201.73;88673;1277;98769;-65
2021/10/20 06:59:49;;;;;;;11.90;8.60;;;;;;;12.55;83.25;100194.45;88822;1269;87376;-67
2021/10/20 07:01:57;;;;;;;11.20;8.00;;;;;;;12.56;83.23;100193.79;88834;1275;95522;-66
2021/10/20 07:04:04;;;;;;;10.10;7.70;;;;;;;12.58;83.32;100184.24;88870;1274;80424;-67
2021/10/20 07:06:12;;;;;;;11.70;9.20;;;;;;;12.63;83.26;100181.36;88883;1275;82459;-67
2021/10/20 07:08:19;;;;;;;11.00;8.30;;;;;;;12.69;83.39;100187.09;88884;1274;98976;-66
2021/10/20 07:10:27;;;;;;;12.60;8.70;;;;;;;12.70;83.43;100182.20;88883;1275;89102;-67
2021/10/20 07:12:35;;;;;;;12.80;8.20;;;;;;;12.74;83.31;100182.41;88886;1274;94135;-67
2021/10/20 07:14:47;;;;;;;11.50;7.80;;;;;;;12.76;83.48;100182.65;88911;1275;80472;-67
2021/10/20 07:16:57;;;;;;;11.30;8.40;;;;;;;12.81;83.38;100187.20;88918;1274;82011;-68
2021/10/20 07:19:06;;;;;;;11.90;9.30;;;;;;;12.84;83.32;100182.70;88889;1275;99119;-66
2021/10/20 07:21:14;;;;;;;13.00;8.40;;;;;;;12.87;83.30;100172.43;88889;1274;88306;-67
2021/10/20 07:23:21;;;;;;;14.70;8.80;;;;;;;12.88;83.35;100173.73;88844;1275;95143;-67
2021/10/20 07:25:29;;;;;;;11.70;8.00;;;;;;;12.90;83.25;100175.48;88864;1274;80622;-68
2021/10/20 07:27:36;;;;;;;9.80;7.80;;;;;;;12.94;83.39;100177.10;88941;1277;81057;-66
2021/10/20 07:29:46;;;;;;;10.30;8.20;;;;;;;13.03;83.27;100170.91;88850;1275;99348;-66
2021/10/20 07:31:55;;;;;;;9.90;7.60;;;;;;;13.11;83.35;100172.31;88884;1274;87221;-66
2021/10/20 07:34:03;;;;;;;9.10;7.50;;;;;;;13.17;83.23;100168.17;88835;1274;95227;-67
2021/10/20 07:36:10;;;;;;;9.50;7.10;;;;;;;13.30;83.34;100168.64;88858;1274;81406;-67
2021/10/20 07:38:20;;;;;;;8.70;6.90;;;;;;;13.41;83.34;100165.23;88894;1274;80973;-69
2021/10/20 07:40:28;;;;;;;9.40;7.10;;;;;;;13.51;83.30;100162.90;88888;1274;98625;-64
2021/10/20 07:42:37;;;;;;;10.80;8.00;;;;;;;13.68;83.15;100161.66;88907;1275;88039;-64
2021/10/20 07:44:48;;;;;;;11.70;7.80;;;;;;;13.77;82.96;100157.59;88851;1275;94960;-66
2021/10/20 07:46:59;;;;;;;11.50;7.90;;;;;;;13.80;82.86;100153.73;88877;1275;81003;-63
2021/10/20 07:49:07;;;;;;;9.90;8.00;;;;;;;13.86;82.71;100153.58;88871;1275;81414;-64
2021/10/20 07:51:14;;;;;;;10.00;8.00;;;;;;;13.86;82.64;100149.85;88872;1274;97687;-65
2021/10/20 07:53:21;;;;;;;9.30;7.70;;;;;;;13.90;82.55;100151.75;88916;1274;89252;-66
2021/10/20 07:55:31;;;;;;;13.10;8.10;;;;;;;13.91;82.46;100155.67;88906;1274;93422;-65
2021/10/20 07:57:39;;;;;;;9.80;7.10;;;;;;;13.89;82.28;100151.09;88829;1275;81162;-64
2021/10/20 07:59:46;;;;;;;8.50;7.10;;;;;;;13.91;82.24;100143.52;88816;1274;81211;-64
2021/10/20 08:01:54;;;;;;;10.50;7.00;;;;;;;13.96;82.20;100145.04;88871;1274;99233;-63
2021/10/20 08:04:01;;;;;;;14.70;8.10;;;;;;;14.01;82.18;100138.73;88841;1275;88392;-65
2021/10/20 08:06:09;;;;;;;9.40;7.00;;;;;;;14.14;81.98;100137.11;88787;1275;94847;-65
2021/10/20 08:08:16;;;;;;;9.50;7.20;;;;;;;14.31;82.01;100139.81;88801;1275;81356;-64
2021/10/20 08:10:26;;;;;;;8.60;6.70;;;;;;;14.45;81.76;100138.02;88807;1274;83107;-63
2021/10/20 08:12:34;;;;;;;8.60;7.10;;;;;;;14.55;81.63;100133.74;88784;1274;99134;-63
2021/10/20 08:14:44;;;;;;;10.00;7.10;;;;;;;14.68;81.43;100126.38;88822;1275;88464;-67
2021/10/20 08:16:52;;;;;;;8.80;7.10;;;;;;;14.72;81.28;100125.02;88871;1275;94659;-65
2021/10/20 08:19:03;;;;;;;9.80;7.90;;;;;;;14.82;81.18;100121.34;88829;1274;80877;-65
2021/10/20 08:21:10;;;;;;;10.10;7.00;;;;;;;14.92;80.84;100122.02;88785;1275;82077;-66
2021/10/20 08:23:18;;;;;;;7.40;6.60;;;;;;;14.98;80.52;100123.41;88814;1274;97538;-65
2021/10/20 08:25:26;;;;;;;9.90;6.10;;;;;;;15.02;80.37;100125.01;88807;1274;86991;-65
2021/10/20 08:27:34;;;;;;;9.50;6.80;;;;;;;15.06;80.29;100123.25;88884;1274;94439;-65
2021/10/20 08:29:42;;;;;;;11.00;7.00;;;;;;;15.13;80.07;100118.98;88816;1275;80056;-65
2021/10/20 08:31:52;;;;;;;11.70;6.40;;;;;;;15.21;79.85;100114.88;88905;1274;81074;-64
2021/10/20 08:33:59;;;;;;;7.60;6.00;;;;;;;15.26;79.62;100109.11;88859;1274;99830;-64
2021/10/20 08:36:07;;;;;;;10.50;6.60;;;;;;;15.35;79.50;100102.45;88812;1275;88516;-63
2021/10/20 08:38:15;;;;;;;8.70;6.30;;;;;;;15.46;79.31;100099.94;88818;1274;94691;-64
2021/10/20 08:40:26;;;;;;;7.80;5.80;;;;;;;15.61;79.13;100102.06;88824;1275;80051;-64
2021/10/20 08:42:37;;;;;;;8.80;6.50;;;;;;;15.82;78.97;100102.34;88819;1275;82165;-64
2021/10/20 08:44:45;;;;;;;7.40;5.70;;;;;;;16.06;78.78;100100.36;88879;1274;98334;-64
2021/10/20 08:46:54;;;;;;;8.00;6.20;;;;;;;16.29;78.44;100096.98;88878;1275;87313;-63
2021/10/20 08:49:05;;;;;;;7.40;6.10;;;;;;;16.51;78.03;100085.48;88850;1275;93051;-65
2021/10/20 08:51:14;;;;;;;9.00;5.80;;;;;;;16.73;77.74;100079.69;88823;1274;80610;-64
2021/10/20 08:53:23;;;;;;;7.90;6.40;;;;;;;16.97;77.35;100075.52;88848;1274;80276;-63
2021/10/20 08:55:34;;;;;;;7.50;6.20;;;;;;;17.10;76.69;100068.52;88814;1272;99602;-63
2021/10/20 08:57:41;;;;;;;6.90;5.90;;;;;;;17.14;76.13;100071.66;88907;1274;87528;-65
2021/10/20 08:59:49;;;;;;;8.20;6.30;;;;;;;17.21;76.05;100074.64;88835;1274;93338;-63
2021/10/20 09:01:56;;;;;;;8.00;6.50;;;;;;;17.49;75.97;100075.37;88871;1274;79576;-65
2021/10/20 09:04:10;;;;;;;7.20;6.30;;;;;;;17.76;75.36;100068.21;88835;1272;81015;-65
2021/10/20 09:06:17;;;;;;;7.60;6.50;;;;;;;17.96;74.78;100066.31;88833;1275;98331;-63
2021/10/20 09:08:38;;;;;;;10.50;5.90;;;;;;;18.15;74.51;100068.67;88858;1275;87813;-63
2021/10/20 09:10:50;;;;;;;6.40;5.50;;;;;;;18.34;73.57;100065.33;88804;1274;93507;-65
2021/10/20 09:12:59;;;;;;;8.80;6.10;;;;;;;18.49;73.56;100062.11;88794;1274;79376;-64
2021/10/20 09:15:09;;;;;;;9.20;6.30;;;;;;;18.62;72.65;100061.58;88825;1274;83252;-64
2021/10/20 09:17:19;;;;;;;7.00;5.50;;;;;;;18.41;72.32;100062.77;88923;1274;97388;-66
2021/10/20 09:19:31;;;;;;;8.70;5.70;;;;;;;18.59;72.61;100060.10;88825;1275;88127;-63
2021/10/20 09:21:54;;;;;;;7.60;6.10;;;;;;;18.83;72.36;100063.86;88856;1275;94480;-65
2021/10/20 09:24:11;;;;;;;7.80;5.90;;;;;;;18.88;71.57;100063.83;88850;1273;79518;-65
2021/10/20 09:26:20;;;;;;;7.30;5.90;;;;;;;18.82;71.25;100056.34;88855;1275;81935;-63
2021/10/20 09:28:32;;;;;;;9.20;6.20;;;;;;;18.76;70.90;100056.96;88895;1274;99475;-65
2021/10/20 09:30:41;;;;;;;10.20;5.80;;;;;;;18.75;70.92;100057.70;88920;1274;88635;-64
2021/10/20 09:32:51;;;;;;;8.30;6.10;;;;;;;18.72;70.43;100058.06;88921;1275;94684;-64
2021/10/20 09:34:59;;;;;;;7.80;6.00;;;;;;;18.58;70.47;100053.85;88892;1273;77638;-63
2021/10/20 09:37:08;;;;;;;8.60;5.50;;;;;;;18.64;70.43;100061.71;88900;1273;82346;-67
2021/10/20 09:39:16;;;;;;;7.60;5.80;;;;;;;18.75;70.52;100059.47;88868;1274;98224;-67
2021/10/20 09:41:28;;;;;;;7.20;5.60;;;;;;;18.83;70.29;100058.54;88833;1274;87396;-67
2021/10/20 09:43:43;;;;;;;6.90;5.60;;;;;;;18.92;70.00;100050.24;88860;1275;94725;-67
2021/10/20 09:45:52;;;;;;;8.20;6.00;;;;;;;18.95;69.43;100049.35;88867;1274;79628;-65
2021/10/20 09:48:11;;;;;;;7.70;5.40;;;;;;;18.93;69.52;100043.91;88876;1274;81373;-69
2021/10/20 09:50:19;;;;;;;8.40;5.40;;;;;;;18.95;69.44;100043.72;88862;1272;98496;-70
2021/10/20 09:52:28;;;;;;;6.50;5.30;;;;;;;18.84;68.74;100040.40;88802;1273;87047;-68